Nearby METAR Reports

 

K6B9 - Skaneateles, New York, USA
Distance from station: SE 7mi, 12km
Updated: Thu, 22-Oct-2020 1:15pm EDT
Overcast
Overcast
 Wind from varies
Wind: varies 6 mph , 9 km/h
Temperature: 57°F , 14°C
Dew Point: 54°F , 12°C
Humidity: 88%
Barometer: 30.24 inHg , 1024 hPa
Clouds: Overcast
Visibility: 9 miles , 14 km
Cloud details: Overcast 1200 ft
2020/10/22 17:15 K6B9 221715Z AUTO VRB05KT 9SM OVC012 14/12 A3024 RMK AO2
KSYR - Syracuse, New York, USA
Distance from station: ENE 24mi, 38km
Updated: Thu, 22-Oct-2020 12:54pm EDT
Light rain, Overcast
Light rain, Overcast
 Wind from ESE
Wind: ESE 5 mph , 7 km/h
Temperature: 57°F , 14°C
Dew Point: 54°F , 12°C
Humidity: 88%
Barometer: 30.25 inHg , 1024.4 hPa
Summary: Light rain
Clouds: Overcast
Visibility: 10 miles , 16 km
Cloud details: Few Clouds 1000 ft
Mostly cloudy 2600 ft
Overcast 3100 ft
2020/10/22 16:54 KSYR 221654Z 11004KT 10SM -RA FEW010 BKN026 OVC031 14/12 A3025 RMK AO2 RAE03B49 SLP242 P0001 T01390117
 
KFZY - Fulton, New York, USA
Distance from station: NNE 26mi, 41km
Updated: Thu, 22-Oct-2020 12:54pm EDT
Overcast
Overcast
 Wind from calm
Wind: Calm
Temperature: 57°F , 14°C
Dew Point: 52°F , 11°C
Humidity: 82%
Barometer: 30.26 inHg , 1024.7 hPa
Clouds: Overcast
Visibility: 10 miles , 16 km
Cloud details: Overcast 2700 ft
2020/10/22 16:54 KFZY 221654Z AUTO 00000KT 10SM OVC027 14/11 A3026 RMK AO2 SLP248 T01440106
KN03 - Cortland, New York, USA
Distance from station: SSE 32mi, 51km
Updated: Thu, 22-Oct-2020 1:15pm EDT
Overcast
Overcast
 Wind from calm
Wind: Calm
Temperature: 54°F , 12°C
Dew Point: 52°F , 11°C
Humidity: 94%
Barometer: 30.24 inHg , 1024 hPa
Clouds: Overcast
Visibility: 10 miles , 16 km
Cloud details: Overcast 900 ft
2020/10/22 17:15 KN03 221715Z AUTO 00000KT 10SM OVC009 12/11 A3024 RMK AO2
 
KSDC - Williamson/Sodus, New York, USA
Distance from station: WNW 34mi, 54km
Updated: Thu, 22-Oct-2020 1:15pm EDT
Light rain, Overcast
Light rain, Overcast
 Wind from N
Wind: N 3 mph , 6 km/h
Temperature: 54°F , 12°C
Dew Point: 52°F , 11°C
Humidity: 94%
Barometer: 30.27 inHg , 1025.1 hPa
Summary: Light rain
Clouds: Overcast
Visibility: 10 miles , 16 km
Cloud details: Overcast 900 ft
2020/10/22 17:15 KSDC 221715Z AUTO 35003KT 10SM -RA OVC009 12/11 A3027 RMK AO2
KPEO - Penn Yan, New York, USA
Distance from station: SW 35mi, 57km
Updated: Thu, 22-Oct-2020 12:53pm EDT
Overcast
Overcast
 Wind from NNE
Wind: NNE 6 mph , 9 km/h
Temperature: 55°F , 13°C
Dew Point: 54°F , 12°C
Humidity: 94%
Barometer: 30.25 inHg , 1024.4 hPa
Clouds: Overcast
Visibility: 9 miles , 14 km
Cloud details: Mostly cloudy 800 ft
Overcast 1300 ft
2020/10/22 16:53 KPEO 221653Z AUTO 03005KT 9SM BKN008 OVC013 13/12 A3025 RMK AO2 CIG 005V010 SLP244 T01330117
 
KITH - Ithaca/Tompkins, New York, USA
Distance from station: S 37mi, 59km
Updated: Thu, 22-Oct-2020 12:56pm EDT
Mist, Overcast
Mist, Overcast
 Wind from calm
Wind: Calm
Temperature: 55°F , 13°C
Dew Point: 55°F , 13°C
Humidity: 100%
Barometer: 30.24 inHg , 1024 hPa
Summary: Mist
Clouds: Overcast
Visibility: 4 miles , 6 km
Cloud details: Overcast 300 ft
2020/10/22 16:56 KITH 221656Z 00000KT 4SM BR OVC003 13/13 A3024 RMK AO2 SLP242 T01330133 PNO $
KVGC - Hamilton Municip, New York, USA
Distance from station: E 50mi, 80km
Updated: Thu, 22-Oct-2020 1:15pm EDT
Overcast
Overcast
 Wind from calm
Wind: Calm
Temperature: 55°F , 13°C
Dew Point: 52°F , 11°C
Humidity: 88%
Barometer: 30.25 inHg , 1024.4 hPa
Clouds: Overcast
Visibility: 10 miles , 16 km
Cloud details: Mostly cloudy 800 ft
Overcast 1700 ft
2020/10/22 17:15 KVGC 221715Z AUTO 00000KT 10SM BKN008 OVC017 13/11 A3025 RMK AO2